createdAt,value
2022-09-15T00:01:44.296Z,93.27
2022-09-15T00:04:46.796Z,93.30
2022-09-15T00:07:49.016Z,93.48
2022-09-15T00:11:04.051Z,95.09
2022-09-15T00:14:08.223Z,95.85
2022-09-15T00:17:10.999Z,94.96
2022-09-15T00:20:13.302Z,94.34
2022-09-15T00:23:17.937Z,96.48
2022-09-15T00:26:22.989Z,98.34
2022-09-15T00:29:25.522Z,95.86
2022-09-15T00:32:28.168Z,96.85
2022-09-15T00:35:30.764Z,98.01
2022-09-15T00:38:34.193Z,97.94
2022-09-15T00:41:39.334Z,97.61
2022-09-15T00:45:00.208Z,98.04
2022-09-15T00:48:04.786Z,99.25
2022-09-15T00:51:10.229Z,100.00
2022-09-15T00:54:21.986Z,100.00
2022-09-15T00:57:33.997Z,100.00
2022-09-15T01:00:36.869Z,100.00
2022-09-15T01:03:39.477Z,100.00
2022-09-15T01:06:54.029Z,100.00
2022-09-15T01:10:00.531Z,100.00
2022-09-15T01:13:08.749Z,100.00
2022-09-15T01:16:35.744Z,100.00
2022-09-15T01:20:29.368Z,100.00
2022-09-15T01:23:34.361Z,100.00
2022-09-15T01:26:46.532Z,100.00
2022-09-15T01:30:18.144Z,100.00
2022-09-15T01:33:57.295Z,100.00
2022-09-15T01:37:06.235Z,100.00
2022-09-15T01:40:10.710Z,100.00
2022-09-15T01:43:14.992Z,100.00
2022-09-15T01:46:21.841Z,100.00
2022-09-15T01:49:30.371Z,100.00
2022-09-15T01:52:33.712Z,100.00
2022-09-15T01:55:43.094Z,100.00
2022-09-15T01:58:45.773Z,100.00
2022-09-15T02:02:12.701Z,100.00
2022-09-15T02:05:30.239Z,100.00
2022-09-15T02:08:52.433Z,100.00
2022-09-15T02:12:07.855Z,100.00
2022-09-15T02:15:15.034Z,100.00
2022-09-15T02:18:30.960Z,100.00
2022-09-15T02:21:36.380Z,100.00
2022-09-15T02:24:44.220Z,100.00
2022-09-15T02:27:52.696Z,100.00
2022-09-15T02:30:58.492Z,100.00
2022-09-15T02:34:07.857Z,100.00
2022-09-15T02:37:11.585Z,100.00
2022-09-15T02:40:14.017Z,100.00
2022-09-15T02:43:18.861Z,100.00
2022-09-15T02:46:22.759Z,100.00
2022-09-15T02:49:25.305Z,100.00
2022-09-15T02:52:27.549Z,100.00
2022-09-15T02:55:30.263Z,100.00
2022-09-15T02:58:35.688Z,100.00
2022-09-15T03:01:39.300Z,100.00
2022-09-15T03:04:42.099Z,100.00
2022-09-15T03:07:44.921Z,100.00
2022-09-15T03:10:47.193Z,100.00
2022-09-15T03:13:54.198Z,100.00
2022-09-15T03:16:58.344Z,100.00
2022-09-15T03:20:01.189Z,100.00
2022-09-15T03:23:03.490Z,100.00
2022-09-15T03:26:09.130Z,100.00
2022-09-15T03:29:11.449Z,100.00
2022-09-15T03:32:14.053Z,100.00
2022-09-15T03:35:16.356Z,100.00
2022-09-15T03:38:19.596Z,100.00
2022-09-15T03:41:21.799Z,100.00
2022-09-15T03:44:24.662Z,100.00
2022-09-15T03:58:31.040Z,100.00
2022-09-15T04:01:35.798Z,100.00
2022-09-15T04:04:39.116Z,100.00
2022-09-15T04:07:42.339Z,100.00
2022-09-15T04:10:45.875Z,100.00
2022-09-15T04:13:52.662Z,100.00
2022-09-15T04:16:56.212Z,100.00
2022-09-15T04:19:58.978Z,100.00
2022-09-15T04:23:02.452Z,100.00
2022-09-15T04:26:12.006Z,100.00
2022-09-15T04:29:16.674Z,100.00
2022-09-15T04:32:20.787Z,100.00
2022-09-15T04:35:24.103Z,100.00
2022-09-15T04:38:26.979Z,100.00
2022-09-15T04:41:30.565Z,100.00
2022-09-15T04:44:35.123Z,100.00
2022-09-15T04:47:38.393Z,100.00
2022-09-15T04:50:41.176Z,100.00
2022-09-15T04:53:44.801Z,98.71
2022-09-15T04:56:49.074Z,97.98
2022-09-15T04:59:52.315Z,97.46
2022-09-15T05:02:55.072Z,97.29
2022-09-15T05:05:58.417Z,97.05
2022-09-15T05:09:01.334Z,98.03
2022-09-15T05:12:04.645Z,97.88
2022-09-15T05:15:07.929Z,97.77
2022-09-15T05:18:10.771Z,97.20
2022-09-15T05:21:15.369Z,97.34
2022-09-15T05:24:18.162Z,96.95
2022-09-15T05:27:20.656Z,96.96
2022-09-15T05:30:37.131Z,97.60
2022-09-15T05:33:40.957Z,98.34
2022-09-15T05:36:44.101Z,99.66
2022-09-15T05:39:47.055Z,99.38
2022-09-15T05:42:51.481Z,97.58
2022-09-15T05:45:55.354Z,97.88
2022-09-15T05:48:59.305Z,96.05
2022-09-15T05:52:03.888Z,96.54
2022-09-15T05:55:07.455Z,97.77
2022-09-15T05:58:18.438Z,93.38
2022-09-15T06:17:39.020Z,89.75
2022-09-15T06:26:07.553Z,89.16
2022-09-15T06:29:35.690Z,91.07
2022-09-15T06:32:48.122Z,87.86
2022-09-15T06:35:51.796Z,89.52
2022-09-15T06:38:55.082Z,88.68
2022-09-15T06:42:02.796Z,90.13
2022-09-15T06:45:07.132Z,89.75
2022-09-15T06:48:23.918Z,89.61
2022-09-15T06:51:31.414Z,90.12
2022-09-15T06:54:33.988Z,89.35
2022-09-15T06:57:37.067Z,89.27
2022-09-15T07:00:39.604Z,89.74
2022-09-15T07:03:44.485Z,88.25
2022-09-15T07:07:07.190Z,90.06
2022-09-15T07:10:35.017Z,88.07
2022-09-15T07:13:40.215Z,88.27
2022-09-15T07:16:43.833Z,86.91
2022-09-15T07:20:19.210Z,89.29
2022-09-15T07:23:24.133Z,87.91
2022-09-15T07:26:34.373Z,81.07
2022-09-15T07:30:17.626Z,77.34
2022-09-15T07:33:27.696Z,75.07
2022-09-15T07:40:26.052Z,73.30
2022-09-15T07:43:34.388Z,71.24
2022-09-15T07:47:02.131Z,70.99
2022-09-15T08:12:23.792Z,69.74
2022-09-15T08:15:27.433Z,68.54
2022-09-15T08:18:30.565Z,67.55
2022-09-15T08:21:33.007Z,66.81
2022-09-15T08:24:35.471Z,65.69
2022-09-15T08:27:37.991Z,64.83
2022-09-15T08:30:40.100Z,64.62
2022-09-15T08:33:45.720Z,64.15
2022-09-15T08:36:48.215Z,63.90
2022-09-15T08:39:51.614Z,61.87
2022-09-15T08:42:58.300Z,61.42
2022-09-15T08:46:06.102Z,61.44
2022-09-15T08:49:23.479Z,61.32
2022-09-15T08:52:54.256Z,60.58
2022-09-15T08:56:00.370Z,60.85
2022-09-15T08:59:05.613Z,61.52
2022-09-15T09:02:26.800Z,61.36
2022-09-15T09:06:05.598Z,59.94
2022-09-15T09:09:48.498Z,59.71
2022-09-15T09:13:30.970Z,58.44
2022-09-15T09:17:10.029Z,56.78
2022-09-15T09:20:54.520Z,55.94
2022-09-15T09:24:03.872Z,54.38
2022-09-15T09:27:13.195Z,53.34
2022-09-15T09:30:18.984Z,53.68
2022-09-15T09:33:47.923Z,52.20
2022-09-15T09:37:09.167Z,52.61
2022-09-15T09:40:15.781Z,51.84
2022-09-15T09:43:18.689Z,49.89
2022-09-15T09:46:22.157Z,50.11
2022-09-15T09:49:26.385Z,49.00
2022-09-15T09:52:39.485Z,48.09
2022-09-15T09:55:46.145Z,47.43
2022-09-15T09:58:49.090Z,46.43
2022-09-15T10:02:11.467Z,46.19
2022-09-15T10:05:19.664Z,45.62
2022-09-15T10:08:21.794Z,45.20
2022-09-15T10:11:46.159Z,44.60
2022-09-15T10:14:52.646Z,45.29
2022-09-15T10:17:56.960Z,45.84
2022-09-15T10:21:00.818Z,45.69
2022-09-15T10:24:34.659Z,45.81
2022-09-15T10:27:37.371Z,47.04
2022-09-15T10:31:22.818Z,45.31
2022-09-15T10:34:40.996Z,45.60
2022-09-15T10:37:45.377Z,44.36
2022-09-15T10:41:18.403Z,43.19
2022-09-15T10:44:59.436Z,43.25
2022-09-15T10:48:37.041Z,42.52
2022-09-15T10:52:08.233Z,43.28
2022-09-15T10:55:53.034Z,45.60
2022-09-15T10:59:34.628Z,45.58
2022-09-15T11:03:28.702Z,46.23
2022-09-15T11:11:28.226Z,47.18
2022-09-15T11:23:49.226Z,50.90
2022-09-15T11:26:58.105Z,52.94
2022-09-15T11:30:24.529Z,53.67
2022-09-15T11:34:03.978Z,56.56
2022-09-15T11:37:25.599Z,58.03
2022-09-15T11:40:33.691Z,59.22
2022-09-15T11:43:45.983Z,59.81
2022-09-15T11:47:28.280Z,60.44
2022-09-15T12:50:39.200Z,61.30
2022-09-15T12:54:19.268Z,60.50
2022-09-15T12:57:25.685Z,60.71
2022-09-15T16:48:34.527Z,100.00
2022-09-15T16:51:37.816Z,100.00
2022-09-15T16:54:40.879Z,100.00
2022-09-15T16:57:44.000Z,100.00
2022-09-15T17:00:48.497Z,100.00
2022-09-15T17:03:51.748Z,100.00
2022-09-15T17:06:54.685Z,100.00
2022-09-15T17:09:57.901Z,100.00
2022-09-15T17:13:01.702Z,100.00
2022-09-15T17:16:04.945Z,100.00
2022-09-15T17:19:07.966Z,100.00
2022-09-15T17:22:11.397Z,100.00
2022-09-15T17:25:22.195Z,100.00
2022-09-15T17:28:30.598Z,100.00
2022-09-15T17:31:34.946Z,100.00
2022-09-15T17:34:38.298Z,100.00
2022-09-15T17:37:41.193Z,100.00
2022-09-15T17:40:44.582Z,100.00
2022-09-15T17:43:47.766Z,100.00
2022-09-15T17:46:51.683Z,100.00
2022-09-15T17:49:55.052Z,100.00
2022-09-15T17:52:59.129Z,100.00
2022-09-15T17:56:02.194Z,100.00
2022-09-15T17:59:05.629Z,100.00
2022-09-15T18:02:19.599Z,100.00
2022-09-15T18:05:26.822Z,100.00
2022-09-15T18:08:29.664Z,100.00
2022-09-15T18:11:33.133Z,100.00
2022-09-15T18:14:36.152Z,100.00
2022-09-15T18:17:39.491Z,100.00
2022-09-15T18:20:42.991Z,100.00
2022-09-15T18:23:46.142Z,100.00
2022-09-15T18:26:49.261Z,100.00
2022-09-15T18:29:52.126Z,100.00
2022-09-15T18:32:54.324Z,100.00
2022-09-15T18:35:59.003Z,100.00
2022-09-15T18:39:01.223Z,100.00
2022-09-15T18:42:03.935Z,100.00
2022-09-15T18:45:07.836Z,100.00
2022-09-15T18:48:12.846Z,100.00
2022-09-15T18:51:23.885Z,100.00
2022-09-15T18:54:34.703Z,100.00
2022-09-15T18:57:38.886Z,100.00
2022-09-15T19:00:41.879Z,100.00
2022-09-15T19:03:44.337Z,100.00
2022-09-15T19:06:46.850Z,100.00
2022-09-15T19:09:56.206Z,100.00
2022-09-15T19:12:59.017Z,100.00
2022-09-15T19:16:06.097Z,100.00
2022-09-15T19:19:08.629Z,100.00
2022-09-15T19:22:10.808Z,100.00
2022-09-15T19:25:13.741Z,100.00
2022-09-15T19:28:15.899Z,100.00
2022-09-15T19:31:18.441Z,100.00
2022-09-15T19:34:20.909Z,100.00
2022-09-15T19:37:23.590Z,100.00
2022-09-15T19:40:25.876Z,100.00
2022-09-15T19:43:28.804Z,100.00
2022-09-15T19:46:31.561Z,100.00
2022-09-15T19:49:34.143Z,100.00
2022-09-15T19:52:36.330Z,100.00
2022-09-15T19:55:38.808Z,100.00
2022-09-15T19:58:41.070Z,100.00
2022-09-15T20:01:43.520Z,100.00
2022-09-15T20:04:46.572Z,100.00
2022-09-15T20:07:48.903Z,100.00
2022-09-15T20:10:51.767Z,100.00
2022-09-15T20:13:54.615Z,100.00
2022-09-15T20:17:00.380Z,100.00
2022-09-15T20:20:03.769Z,100.00
2022-09-15T20:23:06.276Z,100.00
2022-09-15T20:26:10.815Z,100.00
2022-09-15T20:29:13.506Z,100.00
2022-09-15T20:32:15.669Z,100.00
2022-09-15T20:35:18.226Z,100.00
2022-09-15T20:38:21.036Z,100.00
2022-09-15T20:41:26.393Z,100.00
2022-09-15T20:44:28.540Z,100.00
2022-09-15T20:47:31.026Z,100.00
2022-09-15T20:50:33.155Z,100.00
2022-09-15T20:53:36.556Z,100.00
2022-09-15T20:56:38.738Z,100.00
2022-09-15T20:59:41.194Z,100.00
2022-09-15T21:02:43.413Z,100.00
2022-09-15T21:05:46.084Z,100.00
2022-09-15T21:08:49.072Z,100.00
2022-09-15T21:11:53.581Z,100.00
2022-09-15T21:14:57.873Z,100.00
2022-09-15T21:18:01.676Z,100.00
2022-09-15T21:21:07.316Z,100.00
2022-09-15T21:24:10.047Z,100.00
2022-09-15T21:27:27.547Z,100.00
2022-09-15T21:30:30.013Z,100.00
2022-09-15T21:33:32.867Z,100.00
2022-09-15T21:36:35.851Z,100.00
2022-09-15T21:39:37.947Z,100.00
2022-09-15T21:42:40.460Z,100.00
2022-09-15T21:45:42.757Z,100.00
2022-09-15T21:48:47.329Z,100.00
2022-09-15T21:51:49.710Z,100.00
2022-09-15T21:54:52.687Z,100.00
2022-09-15T21:57:55.061Z,100.00
2022-09-15T22:00:57.567Z,100.00
2022-09-15T22:04:02.217Z,100.00
2022-09-15T22:07:04.438Z,100.00
2022-09-15T22:10:07.448Z,100.00
2022-09-15T22:13:11.726Z,100.00
2022-09-15T22:16:17.922Z,100.00
2022-09-15T22:19:20.197Z,100.00
2022-09-15T22:22:23.624Z,100.00
2022-09-15T22:25:26.481Z,100.00
2022-09-15T22:28:29.059Z,100.00
2022-09-15T22:31:31.460Z,100.00
2022-09-15T22:34:33.988Z,100.00
2022-09-15T22:37:36.270Z,100.00
2022-09-15T22:40:38.875Z,100.00
2022-09-15T22:43:42.421Z,100.00
2022-09-15T22:46:44.889Z,100.00
2022-09-15T22:49:47.144Z,100.00
2022-09-15T22:52:50.868Z,100.00
2022-09-15T22:56:04.973Z,100.00
2022-09-15T22:59:07.487Z,100.00
2022-09-15T23:02:09.951Z,100.00
2022-09-15T23:05:12.778Z,100.00
2022-09-15T23:08:15.129Z,100.00
2022-09-15T23:11:17.667Z,100.00
2022-09-15T23:14:19.826Z,100.00
2022-09-15T23:17:22.867Z,100.00
2022-09-15T23:20:25.066Z,100.00
2022-09-15T23:23:28.224Z,100.00
2022-09-15T23:26:30.435Z,100.00
2022-09-15T23:29:33.375Z,100.00
2022-09-15T23:32:35.670Z,100.00
2022-09-15T23:35:38.127Z,100.00
2022-09-15T23:38:42.747Z,100.00
2022-09-15T23:41:45.221Z,100.00
2022-09-15T23:44:47.384Z,100.00
2022-09-15T23:47:49.946Z,100.00
2022-09-15T23:50:52.281Z,100.00
2022-09-15T23:53:55.218Z,100.00
2022-09-15T23:56:57.403Z,100.00
2022-09-15T23:59:59.888Z,100.00
